createdAt,value
2019-05-10T00:01:42.564Z,8.55
2019-05-10T00:04:32.241Z,8.25
2019-05-10T00:07:21.718Z,8.50
2019-05-10T00:09:52.315Z,8.60
2019-05-10T00:12:31.135Z,7.97
2019-05-10T00:15:02.642Z,7.28
2019-05-10T00:17:34.244Z,7.28
2019-05-10T00:20:07.377Z,6.47
2019-05-10T00:22:38.760Z,6.30
2019-05-10T00:25:10.227Z,6.05
2019-05-10T00:27:41.677Z,6.72
2019-05-10T00:30:13.406Z,7.03
2019-05-10T00:32:44.913Z,7.40
2019-05-10T00:35:16.231Z,8.03
2019-05-10T00:37:47.781Z,7.33
2019-05-10T00:40:19.052Z,7.87
2019-05-10T00:42:50.451Z,7.17
2019-05-10T00:45:21.822Z,8.10
2019-05-10T00:47:53.146Z,7.67
2019-05-10T00:50:24.543Z,7.40
2019-05-10T00:52:56.019Z,8.18
2019-05-10T00:55:27.419Z,7.67
2019-05-10T00:57:58.788Z,8.18
2019-05-10T01:00:30.259Z,8.18
2019-05-10T01:03:01.753Z,8.33
2019-05-10T01:05:33.214Z,8.55
2019-05-10T01:08:04.660Z,8.90
2019-05-10T01:10:36.012Z,14.23
2019-05-10T01:13:07.465Z,12.88
2019-05-10T01:15:38.912Z,9.80
2019-05-10T01:18:10.362Z,10.30
2019-05-10T01:20:41.805Z,10.53
2019-05-10T01:23:13.266Z,14.13
2019-05-10T01:25:45.732Z,12.88
2019-05-10T01:28:17.100Z,12.47
2019-05-10T01:30:48.705Z,14.28
2019-05-10T01:33:20.181Z,12.82
2019-05-10T01:35:51.559Z,13.48
2019-05-10T01:38:23.012Z,13.60
2019-05-10T01:40:54.537Z,13.40
2019-05-10T01:43:25.925Z,13.48
2019-05-10T01:45:57.309Z,13.15
2019-05-10T01:48:28.762Z,12.73
2019-05-10T01:51:00.244Z,13.38
2019-05-10T01:53:31.784Z,13.35
2019-05-10T01:56:03.220Z,13.90
2019-05-10T01:58:34.674Z,15.05
2019-05-10T02:01:06.042Z,13.65
2019-05-10T02:03:37.389Z,13.70
2019-05-10T02:06:08.831Z,13.83
2019-05-10T02:08:40.282Z,14.70
2019-05-10T02:11:11.627Z,14.03
2019-05-10T02:13:43.067Z,14.98
2019-05-10T02:16:14.426Z,14.90
2019-05-10T02:18:46.998Z,16.80
2019-05-10T02:21:18.550Z,14.80
2019-05-10T02:23:50.097Z,15.28
2019-05-10T02:26:21.564Z,18.48
2019-05-10T02:28:53.010Z,16.97
2019-05-10T02:31:25.575Z,16.12
2019-05-10T02:33:57.147Z,16.05
2019-05-10T02:36:28.585Z,16.90
2019-05-10T02:38:59.948Z,16.42
2019-05-10T02:41:31.309Z,16.23
2019-05-10T02:44:02.731Z,16.40
2019-05-10T02:46:34.129Z,16.97
2019-05-10T02:49:05.524Z,16.25
2019-05-10T02:51:36.975Z,17.00
2019-05-10T02:54:08.424Z,16.45
2019-05-10T02:56:40.029Z,17.87
2019-05-10T02:59:13.839Z,16.25
2019-05-10T03:01:46.077Z,16.42
2019-05-10T03:04:17.498Z,17.15
2019-05-10T03:06:51.900Z,18.87
2019-05-10T03:09:26.240Z,18.80
2019-05-10T03:12:00.501Z,18.35
2019-05-10T03:14:34.796Z,18.23
2019-05-10T03:17:08.214Z,17.95
2019-05-10T03:19:40.936Z,19.45
2019-05-10T03:22:14.031Z,17.92
2019-05-10T03:24:45.480Z,16.77
2019-05-10T03:27:17.013Z,18.80
2019-05-10T03:29:48.506Z,17.90
2019-05-10T03:32:19.925Z,16.17
2019-05-10T03:34:51.382Z,15.32
2019-05-10T03:37:22.785Z,13.32
2019-05-10T03:39:54.148Z,14.68
2019-05-10T03:42:25.651Z,13.48
2019-05-10T03:44:57.077Z,13.03
2019-05-10T03:47:28.648Z,13.35
2019-05-10T03:50:00.092Z,12.65
2019-05-10T03:52:31.638Z,12.30
2019-05-10T03:55:03.077Z,13.15
2019-05-10T03:57:34.532Z,13.55
2019-05-10T04:00:08.502Z,13.35
2019-05-10T04:02:39.910Z,14.00
2019-05-10T04:05:12.193Z,13.05
2019-05-10T04:07:43.697Z,12.68
2019-05-10T04:10:15.065Z,12.98
2019-05-10T04:12:46.648Z,12.78
2019-05-10T04:15:17.972Z,13.85
2019-05-10T04:17:50.347Z,15.08
2019-05-10T04:20:22.076Z,15.60
2019-05-10T04:22:53.476Z,15.18
2019-05-10T04:25:24.882Z,15.38
2019-05-10T04:27:56.405Z,15.05
2019-05-10T04:30:31.692Z,15.58
2019-05-10T04:33:00.970Z,16.25
2019-05-10T04:35:32.338Z,17.17
2019-05-10T04:38:03.940Z,16.67
2019-05-10T04:40:35.314Z,17.45
2019-05-10T04:43:06.785Z,17.10
2019-05-10T04:45:38.162Z,17.17
2019-05-10T04:48:09.747Z,17.42
2019-05-10T04:50:41.216Z,18.73
2019-05-10T04:53:12.588Z,19.27
2019-05-10T04:55:44.015Z,19.27
2019-05-10T04:58:15.403Z,18.57
2019-05-10T05:00:46.826Z,19.73
2019-05-10T05:03:18.280Z,20.02
2019-05-10T05:05:49.645Z,21.05
2019-05-10T05:08:21.061Z,19.15
2019-05-10T05:10:53.147Z,17.23
2019-05-10T05:13:24.596Z,17.77
2019-05-10T05:15:55.967Z,19.35
2019-05-10T05:18:27.407Z,16.70
2019-05-10T05:20:58.949Z,17.07
2019-05-10T05:23:30.394Z,15.72
2019-05-10T05:26:01.985Z,17.55
2019-05-10T05:28:33.483Z,16.75
2019-05-10T05:31:04.946Z,17.85
2019-05-10T05:33:36.320Z,15.83
2019-05-10T05:36:07.834Z,16.25
2019-05-10T05:38:40.643Z,14.80
2019-05-10T05:41:12.292Z,13.70
2019-05-10T05:43:46.197Z,12.50
2019-05-10T05:46:16.934Z,11.95
2019-05-10T05:48:51.296Z,10.78
2019-05-10T05:51:21.522Z,12.15
2019-05-10T05:53:53.069Z,10.85
2019-05-10T05:56:24.629Z,10.45
2019-05-10T05:58:56.126Z,11.03
2019-05-10T06:01:29.493Z,10.13
2019-05-10T06:04:06.311Z,8.95
2019-05-10T06:06:34.003Z,8.98
2019-05-10T06:09:07.478Z,9.48
2019-05-10T06:11:38.933Z,9.13
2019-05-10T06:14:12.595Z,9.33
2019-05-10T06:16:45.278Z,8.25
2019-05-10T06:19:20.576Z,8.48
2019-05-10T06:21:49.690Z,8.68
2019-05-10T06:24:21.095Z,7.45
2019-05-10T06:26:52.555Z,8.30
2019-05-10T06:29:24.088Z,9.95
2019-05-10T06:31:58.710Z,8.50
2019-05-10T06:34:32.068Z,11.90
2019-05-10T06:37:01.862Z,8.20
2019-05-10T06:39:33.270Z,8.40
2019-05-10T06:42:04.758Z,9.50
2019-05-10T06:44:36.163Z,8.73
2019-05-10T06:47:08.751Z,7.65
2019-05-10T06:49:48.279Z,8.93
2019-05-10T06:52:16.265Z,7.80
2019-05-10T06:54:46.826Z,8.18
2019-05-10T06:57:19.386Z,7.00
2019-05-10T06:59:50.717Z,7.92
2019-05-10T07:02:26.727Z,7.90
2019-05-10T07:04:55.370Z,7.45
2019-05-10T07:07:43.150Z,6.58
2019-05-10T07:10:08.389Z,6.37
2019-05-10T07:12:32.745Z,6.62
2019-05-10T07:15:06.588Z,6.35
2019-05-10T07:17:43.636Z,6.10
2019-05-10T07:20:11.235Z,6.25
2019-05-10T07:22:42.804Z,10.03
2019-05-10T07:25:14.283Z,6.08
2019-05-10T07:27:45.522Z,6.70
2019-05-10T07:30:19.819Z,9.35
2019-05-10T07:32:54.517Z,8.58
2019-05-10T07:35:24.304Z,8.48
2019-05-10T07:37:55.748Z,6.47
2019-05-10T07:40:27.823Z,8.60
2019-05-10T07:42:59.328Z,8.00
2019-05-10T07:45:30.854Z,7.42
2019-05-10T07:48:07.890Z,9.33
2019-05-10T07:50:35.378Z,8.08
2019-05-10T07:53:06.837Z,7.70
2019-05-10T07:55:38.336Z,7.33
2019-05-10T07:58:09.830Z,7.25
2019-05-10T08:00:44.498Z,7.20
2019-05-10T08:03:17.661Z,6.20
2019-05-10T08:05:54.986Z,7.50
2019-05-10T08:08:20.720Z,7.30
2019-05-10T08:10:52.104Z,6.87
2019-05-10T08:13:25.213Z,6.20
2019-05-10T08:18:30.650Z,6.50
2019-05-10T08:21:10.691Z,7.05
2019-05-10T08:23:35.204Z,6.83
2019-05-10T08:26:11.038Z,7.65
2019-05-10T08:28:42.236Z,7.33
2019-05-10T08:31:13.211Z,7.75
2019-05-10T08:33:53.682Z,7.83
2019-05-10T08:36:18.827Z,8.67
2019-05-10T08:39:01.516Z,10.58
2019-05-10T08:41:23.441Z,10.60
2019-05-10T08:43:54.850Z,12.37
2019-05-10T08:46:34.982Z,14.70
2019-05-10T08:49:01.929Z,16.35
2019-05-10T08:51:34.507Z,14.50
2019-05-10T08:54:06.014Z,14.15
2019-05-10T08:56:37.569Z,13.72
2019-05-10T08:59:14.313Z,12.43
2019-05-10T09:01:46.935Z,8.13
2019-05-10T09:04:15.302Z,8.65
2019-05-10T09:06:47.646Z,9.18
2019-05-10T09:09:19.908Z,7.03
2019-05-10T09:11:52.248Z,6.58
2019-05-10T09:14:24.211Z,7.62
2019-05-10T09:17:00.524Z,7.72
2019-05-10T09:19:39.601Z,8.58
2019-05-10T09:22:02.170Z,9.68
2019-05-10T09:24:34.857Z,9.85
2019-05-10T09:27:06.937Z,8.90
2019-05-10T09:29:38.393Z,8.95
2019-05-10T09:32:12.406Z,9.85
2019-05-10T09:34:43.252Z,11.53
2019-05-10T09:37:17.699Z,9.85
2019-05-10T09:39:54.924Z,9.58
2019-05-10T09:42:26.474Z,9.98
2019-05-10T09:44:54.160Z,8.83
2019-05-10T09:47:25.643Z,7.83
2019-05-10T09:49:58.939Z,7.05
2019-05-10T09:52:30.645Z,8.35
2019-05-10T09:55:04.069Z,6.75
2019-05-10T09:57:38.034Z,6.33
2019-05-10T10:00:10.392Z,5.75
2019-05-10T10:02:47.852Z,6.10
2019-05-10T10:05:17.786Z,8.20
2019-05-10T10:07:48.270Z,6.97
2019-05-10T10:10:29.012Z,7.05
2019-05-10T10:12:58.425Z,5.62
2019-05-10T10:15:33.610Z,5.60
2019-05-10T10:18:00.315Z,6.17
2019-05-10T10:20:35.951Z,6.50
2019-05-10T10:23:07.324Z,5.92
2019-05-10T10:25:40.880Z,6.90
2019-05-10T10:28:22.560Z,9.33
2019-05-10T10:30:50.417Z,5.70
2019-05-10T10:33:25.373Z,6.67
2019-05-10T10:35:56.518Z,5.60
2019-05-10T10:38:30.641Z,5.67
2019-05-10T10:40:59.860Z,6.28
2019-05-10T10:43:31.378Z,5.47
2019-05-10T10:46:02.951Z,5.30
2019-05-10T10:48:36.835Z,4.60
2019-05-10T10:51:08.168Z,5.50
2019-05-10T10:53:39.819Z,5.17
2019-05-10T10:56:11.125Z,5.05
2019-05-10T10:58:42.611Z,5.55
2019-05-10T11:01:21.405Z,5.60
2019-05-10T11:03:48.931Z,5.30
2019-05-10T11:06:20.626Z,5.08
2019-05-10T11:08:52.020Z,6.97
2019-05-10T11:11:23.510Z,6.00
2019-05-10T11:14:00.659Z,4.30
2019-05-10T11:16:27.929Z,4.08
2019-05-10T11:19:03.687Z,4.50
2019-05-10T11:21:33.409Z,4.70
2019-05-10T11:24:10.512Z,3.80
2019-05-10T11:26:38.015Z,3.83
2019-05-10T11:29:15.885Z,4.28
2019-05-10T11:31:42.570Z,3.52
2019-05-10T11:34:13.944Z,4.00
2019-05-10T11:36:45.961Z,3.33
2019-05-10T11:39:26.183Z,4.15
2019-05-10T11:42:00.971Z,3.80
2019-05-10T11:44:25.944Z,4.33
2019-05-10T11:46:57.373Z,4.42
2019-05-10T11:49:30.750Z,5.70
2019-05-10T11:52:02.041Z,5.75
2019-05-10T11:54:33.616Z,6.17
2019-05-10T11:57:09.775Z,5.55
2019-05-10T11:59:41.458Z,23.38
2019-05-10T12:02:33.934Z,8.18
2019-05-10T12:04:45.451Z,6.10
2019-05-10T12:07:24.645Z,6.28
2019-05-10T12:09:53.329Z,4.95
2019-05-10T12:12:30.645Z,4.97
2019-05-10T12:14:57.039Z,3.80
2019-05-10T12:17:28.327Z,3.95
2019-05-10T12:20:02.555Z,3.20
2019-05-10T12:22:38.188Z,3.12
2019-05-10T12:25:32.316Z,3.10
2019-05-10T12:27:47.874Z,3.17
2019-05-10T12:30:16.114Z,3.65
2019-05-10T12:32:56.514Z,3.58
2019-05-10T12:35:21.491Z,3.00
2019-05-10T12:37:54.058Z,3.30
2019-05-10T12:40:25.848Z,3.08
2019-05-10T12:42:57.269Z,2.52
2019-05-10T12:45:30.843Z,2.87
2019-05-10T12:48:01.843Z,3.22
2019-05-10T12:50:33.196Z,2.90
2019-05-10T12:53:14.195Z,3.50
2019-05-10T12:55:37.653Z,2.83
2019-05-10T12:58:08.925Z,2.75
2019-05-10T13:00:40.491Z,3.50
2019-05-10T13:03:13.398Z,2.50
2019-05-10T13:05:52.734Z,2.72
2019-05-10T13:08:18.260Z,3.00
2019-05-10T13:10:50.113Z,2.60
2019-05-10T13:13:23.696Z,3.00
2019-05-10T13:15:54.501Z,3.00
2019-05-10T13:18:48.147Z,3.30
2019-05-10T13:20:58.846Z,3.30
2019-05-10T13:23:30.278Z,3.80
2019-05-10T13:26:01.606Z,3.45
2019-05-10T13:28:32.978Z,2.87
2019-05-10T13:31:05.546Z,3.10
2019-05-10T13:33:41.765Z,3.67
2019-05-10T13:36:11.876Z,3.20
2019-05-10T13:38:48.576Z,3.85
2019-05-10T13:41:17.995Z,3.83
2019-05-10T13:43:49.461Z,3.80
2019-05-10T13:46:21.519Z,3.40
2019-05-10T13:48:52.787Z,3.67
2019-05-10T13:51:24.157Z,3.80
2019-05-10T13:53:58.917Z,3.35
2019-05-10T13:56:28.591Z,4.08
2019-05-10T13:59:13.790Z,4.15
2019-05-10T14:01:32.942Z,4.55
2019-05-10T14:04:04.236Z,7.03
2019-05-10T14:06:35.627Z,4.45
2019-05-10T14:09:08.451Z,5.10
2019-05-10T14:11:41.849Z,5.25
2019-05-10T14:14:14.666Z,5.10
2019-05-10T14:16:46.227Z,5.08
2019-05-10T14:19:23.150Z,4.95
2019-05-10T14:21:50.654Z,5.30
2019-05-10T14:24:22.175Z,5.65
2019-05-10T14:26:57.096Z,5.33
2019-05-10T14:29:34.341Z,5.43
2019-05-10T14:32:01.001Z,5.47
2019-05-10T14:34:32.463Z,6.25
2019-05-10T14:37:03.763Z,7.05
2019-05-10T14:39:35.033Z,7.78
2019-05-10T14:42:09.322Z,7.42
2019-05-10T14:44:39.725Z,7.25
2019-05-10T14:47:11.350Z,7.78
2019-05-10T14:49:47.058Z,7.78
2019-05-10T14:52:15.957Z,7.97
2019-05-10T14:54:49.833Z,8.23
2019-05-10T14:57:20.405Z,6.92
2019-05-10T14:59:51.697Z,7.92
2019-05-10T15:02:25.015Z,7.83
2019-05-10T15:04:56.263Z,8.10
2019-05-10T15:07:27.712Z,7.50
2019-05-10T15:10:00.243Z,6.85
2019-05-10T15:12:32.409Z,7.62
2019-05-10T15:15:04.246Z,7.05
2019-05-10T15:17:35.658Z,6.65
2019-05-10T15:20:08.452Z,6.30
2019-05-10T15:22:39.911Z,5.05
2019-05-10T15:25:12.195Z,5.35
2019-05-10T15:27:43.637Z,5.12
2019-05-10T15:30:15.220Z,5.40
2019-05-10T15:32:46.559Z,5.30
2019-05-10T15:35:17.908Z,5.28
2019-05-10T15:37:49.315Z,4.87
2019-05-10T15:40:21.016Z,5.10
2019-05-10T15:42:52.406Z,4.87
2019-05-10T15:45:23.728Z,5.05
2019-05-10T15:47:57.580Z,4.87
2019-05-10T15:50:32.615Z,4.83
2019-05-10T15:53:01.619Z,4.20
2019-05-10T15:55:33.982Z,4.55
2019-05-10T15:58:05.330Z,5.08
2019-05-10T16:00:39.338Z,4.67
2019-05-10T16:03:09.850Z,4.62
2019-05-10T16:05:43.845Z,4.08
2019-05-10T16:08:14.281Z,4.72
2019-05-10T16:10:45.585Z,5.12
2019-05-10T16:13:23.271Z,5.00
2019-05-10T16:15:51.757Z,4.50
2019-05-10T16:18:23.164Z,4.80
2019-05-10T16:20:54.464Z,4.53
2019-05-10T16:23:25.766Z,4.53
2019-05-10T16:25:57.228Z,4.47
2019-05-10T16:28:28.557Z,6.42
2019-05-10T16:31:00.118Z,5.92
2019-05-10T16:33:31.449Z,5.92
2019-05-10T16:36:02.770Z,5.35
2019-05-10T16:38:34.247Z,5.75
2019-05-10T16:41:05.608Z,6.45
2019-05-10T16:43:37.147Z,6.17
2019-05-10T16:46:08.495Z,7.08
2019-05-10T16:48:39.947Z,6.35
2019-05-10T16:51:12.809Z,6.40
2019-05-10T16:53:45.983Z,6.45
2019-05-10T16:56:18.669Z,6.08
2019-05-10T16:58:53.016Z,8.20
2019-05-10T17:01:25.736Z,9.20
2019-05-10T17:04:00.147Z,9.93
2019-05-10T17:06:29.998Z,11.28
2019-05-10T17:09:01.486Z,15.10
2019-05-10T17:11:33.692Z,17.37
2019-05-10T17:14:05.290Z,18.10
2019-05-10T17:16:36.815Z,15.38
2019-05-10T17:19:08.329Z,17.87
2019-05-10T17:21:39.794Z,16.70
2019-05-10T17:24:11.461Z,18.25
2019-05-10T17:26:43.119Z,15.23
2019-05-10T17:29:14.877Z,16.17
2019-05-10T17:31:47.749Z,17.17
2019-05-10T17:34:27.881Z,15.85
2019-05-10T17:36:57.845Z,17.52
2019-05-10T17:39:31.450Z,16.75
2019-05-10T17:42:03.027Z,16.55
2019-05-10T17:44:32.231Z,16.12
2019-05-10T17:47:03.527Z,17.42
2019-05-10T17:49:35.132Z,15.03
2019-05-10T17:52:06.620Z,23.40
2019-05-10T17:54:39.358Z,14.95
2019-05-10T17:57:16.809Z,15.20
2019-05-10T17:59:46.934Z,14.58
2019-05-10T18:02:17.540Z,15.20
2019-05-10T18:04:50.308Z,15.53
2019-05-10T18:07:21.676Z,15.03
2019-05-10T18:09:53.297Z,15.30
2019-05-10T18:12:27.101Z,17.15
2019-05-10T18:14:58.022Z,16.82
2019-05-10T18:17:29.550Z,18.55
2019-05-10T18:20:02.395Z,16.35
2019-05-10T18:22:41.837Z,16.02
2019-05-10T18:25:13.186Z,16.45
2019-05-10T18:27:40.799Z,20.08
2019-05-10T18:30:12.721Z,19.65
2019-05-10T18:32:45.370Z,22.22
2019-05-10T18:35:17.182Z,24.67
2019-05-10T18:37:53.706Z,23.80
2019-05-10T18:40:25.399Z,24.55
2019-05-10T18:42:57.712Z,54.55
2019-05-10T18:45:29.826Z,29.20
2019-05-10T18:48:01.663Z,28.57
2019-05-10T18:50:33.164Z,27.27
2019-05-10T18:53:04.547Z,23.60
2019-05-10T18:55:35.967Z,23.98
2019-05-10T18:58:07.453Z,23.22
2019-05-10T19:00:40.276Z,23.55
2019-05-10T19:03:11.697Z,21.23
2019-05-10T19:05:43.192Z,18.35
2019-05-10T19:08:14.704Z,19.02
2019-05-10T19:10:46.228Z,19.35
2019-05-10T19:13:18.314Z,19.02
2019-05-10T19:15:53.101Z,19.30
2019-05-10T19:18:25.423Z,20.30
2019-05-10T19:20:56.588Z,19.70
2019-05-10T19:23:28.028Z,19.82
2019-05-10T19:25:59.604Z,20.25
2019-05-10T19:28:31.048Z,21.33
2019-05-10T19:31:02.485Z,22.27
2019-05-10T19:33:36.162Z,21.40
2019-05-10T19:36:12.187Z,21.30
2019-05-10T19:38:40.480Z,21.15
2019-05-10T19:41:11.981Z,20.20
2019-05-10T19:43:43.357Z,21.40
2019-05-10T19:46:14.880Z,19.98
2019-05-10T19:48:46.277Z,19.80
2019-05-10T19:51:17.691Z,19.70
2019-05-10T19:53:49.176Z,21.40
2019-05-10T19:56:20.745Z,18.62
2019-05-10T19:58:52.101Z,18.40
2019-05-10T20:01:23.581Z,17.23
2019-05-10T20:03:54.953Z,16.87
2019-05-10T20:06:26.380Z,16.20
2019-05-10T20:08:57.773Z,16.62
2019-05-10T20:11:29.195Z,16.20
2019-05-10T20:14:00.675Z,15.80
2019-05-10T20:16:32.169Z,15.55
2019-05-10T20:19:03.774Z,15.68
2019-05-10T20:21:35.243Z,15.88
2019-05-10T20:24:08.497Z,15.43
2019-05-10T20:26:40.033Z,15.28
2019-05-10T20:29:11.761Z,15.75
2019-05-10T20:31:43.177Z,16.30
2019-05-10T20:34:14.623Z,16.30
2019-05-10T20:36:46.099Z,15.83
2019-05-10T20:39:17.534Z,16.27
2019-05-10T20:41:49.146Z,17.45
2019-05-10T20:44:20.380Z,16.70
2019-05-10T20:46:51.814Z,17.90
2019-05-10T20:49:23.188Z,17.37
2019-05-10T20:51:54.731Z,15.78
2019-05-10T20:54:26.133Z,16.05
2019-05-10T20:56:57.593Z,15.60
2019-05-10T20:59:28.992Z,15.45
2019-05-10T21:02:00.404Z,14.73
2019-05-10T21:04:32.934Z,14.90
2019-05-10T21:07:04.445Z,14.05
2019-05-10T21:09:36.040Z,14.15
2019-05-10T21:12:07.545Z,13.85
2019-05-10T21:14:38.907Z,13.38
2019-05-10T21:17:10.726Z,14.15
2019-05-10T21:19:43.275Z,12.10
2019-05-10T21:22:15.435Z,12.55
2019-05-10T21:24:46.830Z,13.20
2019-05-10T21:27:18.305Z,12.20
2019-05-10T21:29:49.823Z,12.25
2019-05-10T21:32:21.420Z,11.57
2019-05-10T21:34:52.908Z,11.65
2019-05-10T21:37:24.347Z,11.20
2019-05-10T21:39:55.708Z,11.55
2019-05-10T21:42:27.310Z,11.12
2019-05-10T21:44:58.689Z,11.18
2019-05-10T21:47:30.122Z,11.10
2019-05-10T21:50:01.593Z,11.03
2019-05-10T21:52:33.078Z,10.88
2019-05-10T21:55:04.792Z,10.70
2019-05-10T21:57:36.198Z,11.40
2019-05-10T22:00:09.942Z,10.48
2019-05-10T22:02:43.040Z,10.32
2019-05-10T22:05:14.499Z,10.60
2019-05-10T22:07:45.990Z,11.15
2019-05-10T22:10:17.660Z,11.35
2019-05-10T22:12:49.284Z,10.48
2019-05-10T22:15:20.652Z,11.38
2019-05-10T22:17:52.193Z,10.50
2019-05-10T22:20:23.598Z,10.43
2019-05-10T22:22:55.085Z,10.90
2019-05-10T22:25:26.488Z,11.35
2019-05-10T22:27:58.106Z,10.88
2019-05-10T22:30:29.797Z,11.45
2019-05-10T22:33:01.291Z,10.50
2019-05-10T22:35:32.813Z,11.65
2019-05-10T22:38:04.294Z,11.08
2019-05-10T22:40:35.701Z,12.03
2019-05-10T22:43:07.288Z,11.65
2019-05-10T22:45:38.803Z,12.95
2019-05-10T22:48:10.500Z,13.62
2019-05-10T22:50:41.843Z,11.80
2019-05-10T22:53:13.342Z,13.60
2019-05-10T22:55:44.806Z,13.53
2019-05-10T22:58:16.292Z,12.35
2019-05-10T23:00:47.702Z,12.30
2019-05-10T23:03:24.173Z,12.13
2019-05-10T23:05:53.070Z,12.55
2019-05-10T23:08:24.551Z,12.85
2019-05-10T23:10:55.972Z,13.15
2019-05-10T23:13:27.475Z,12.98
2019-05-10T23:15:58.975Z,12.43
2019-05-10T23:18:30.397Z,12.15
2019-05-10T23:21:03.515Z,12.00
2019-05-10T23:23:34.939Z,11.93
2019-05-10T23:26:06.408Z,11.93
2019-05-10T23:28:37.811Z,11.78
2019-05-10T23:31:09.387Z,12.40
2019-05-10T23:33:41.016Z,11.57
2019-05-10T23:36:12.373Z,11.33
2019-05-10T23:38:43.862Z,11.38
2019-05-10T23:41:15.313Z,10.28
2019-05-10T23:43:46.748Z,9.83
2019-05-10T23:46:18.299Z,9.75
2019-05-10T23:48:49.811Z,10.25
2019-05-10T23:51:21.143Z,10.68
2019-05-10T23:53:52.522Z,9.13
2019-05-10T23:56:23.907Z,12.23
2019-05-10T23:58:55.303Z,9.50
